Time;durP1;ratioP1;P1;durP2;ratioP2;P2;SDS_P1;SDS_P2;PMS_P1;PMS_P2;Temp;Humidity;BMP_temperature;BMP_pressure;BME280_temperature;BME280_humidity;BME280_pressure;Samples;Min_cycle;Max_cycle;Signal;HPM_P1;HPM_P2
2022/02/17 00:01:10;;;;;;;5.22;2.28;;;;;;;0.54;60.54;92141.09;4999726;28;20475;-90
2022/02/17 00:03:52;;;;;;;6.65;2.55;;;;;;;0.51;60.36;92132.06;4998238;28;20087;-91
2022/02/17 00:06:58;;;;;;;8.75;2.75;;;;;;;0.77;61.29;92192.50;4988989;28;20498;-90
2022/02/17 00:09:50;;;;;;;7.95;3.10;;;;;;;0.43;61.32;92126.50;4999515;28;20104;-90
2022/02/17 00:12:59;;;;;;;6.13;2.70;;;;;;;0.49;61.27;92135.88;4985232;28;20065;-92
2022/02/17 00:15:40;;;;;;;7.47;2.83;;;;;;;0.80;61.30;92181.72;5005109;28;20038;-91
2022/02/17 00:18:56;;;;;;;;;;;;;;;;;;;;;
2022/02/17 00:21:49;;;;;;;6.13;2.67;;;;;;;0.33;60.55;92102.13;5005688;28;20140;-90
2022/02/17 00:24:35;;;;;;;;;;;;;;;0.87;60.46;92176.41;4976432;28;20049;-90
2022/02/17 00:27:29;;;;;;;5.43;2.15;;;;;;;0.42;60.71;92092.25;4982055;28;19925;-92
2022/02/17 00:33:51;;;;;;;4.90;2.03;;;;;;;0.72;60.84;92127.22;4992847;28;20068;-91
2022/02/17 00:37:02;;;;;;;;;;;;;;;;;;;;;
2022/02/17 00:40:04;;;;;;;2.58;1.40;;;;;;;0.45;62.26;92089.22;5002498;28;20042;-91
2022/02/17 00:42:53;;;;;;;2.90;1.63;;;;;;;0.70;61.88;92124.91;4981512;28;20069;-90
2022/02/17 00:45:55;;;;;;;2.72;1.48;;;;;;;0.39;61.74;92072.88;4974132;28;20052;-91
2022/02/17 00:48:38;;;;;;;2.45;1.45;;;;;;;0.44;61.52;92090.22;4997202;28;20080;-92
2022/02/17 00:51:39;;;;;;;2.90;1.55;;;;;;;0.41;61.37;92090.69;4981461;28;20038;-92
2022/02/17 00:54:33;;;;;;;3.58;1.63;;;;;;;0.54;60.78;92136.75;4981572;28;20080;-90
2022/02/17 00:57:48;;;;;;;3.63;1.55;;;;;;;0.83;61.13;92168.38;4999899;28;20052;-91
2022/02/17 01:04:10;;;;;;;4.40;1.70;;;;;;;0.55;60.53;92127.22;4965060;28;20518;-90
2022/02/17 01:07:05;;;;;;;;;;;;;;;;;;;;;
2022/02/17 01:10:11;;;;;;;;;;;;;;;;;;;;;
2022/02/17 01:13:07;;;;;;;2.72;1.55;;;;;;;0.45;60.50;92122.69;4994411;28;20089;-91
2022/02/17 01:16:19;;;;;;;2.53;1.40;;;;;;;0.48;61.17;92129.94;4975447;28;20026;-91
2022/02/17 01:18:52;;;;;;;3.03;1.50;;;;;;;0.25;61.01;92092.25;4964467;28;20065;-90
2022/02/17 01:24:56;;;;;;;4.28;1.60;;;;;;;0.24;61.94;92100.97;5013619;28;20139;-91
2022/02/17 01:27:57;;;;;;;;;;;;;;;;;;;;;
2022/02/17 01:33:41;;;;;;;3.50;1.65;;;;;;;0.16;61.95;92080.75;4994087;28;20411;-90
2022/02/17 01:36:38;;;;;;;5.68;2.22;;;;;;;0.67;62.29;92156.25;4999442;28;20497;-91
2022/02/17 01:39:42;;;;;;;4.70;2.00;;;;;;;0.67;62.23;92160.63;4982829;28;20069;-90
2022/02/17 01:42:40;;;;;;;;;;;;;;;;;;;;;
2022/02/17 01:45:12;;;;;;;4.05;1.90;;;;;;;0.23;61.79;92078.81;5003711;28;20052;-91
2022/02/17 01:51:38;;;;;;;4.20;1.92;;;;;;;0.37;61.03;92063.84;5004251;28;20038;-90
2022/02/17 01:55:09;;;;;;;;;;;;;;;;;;;;;
2022/02/17 01:57:51;;;;;;;11.88;2.17;;;;;;;0.64;61.92;92112.94;4999209;28;20052;-90
2022/02/17 02:00:44;;;;;;;3.47;1.60;;;;;;;0.46;62.02;92088.19;4981355;28;20043;-90
2022/02/17 02:03:20;;;;;;;;;;;;;;;0.73;62.30;92127.00;4980473;28;20042;-90
2022/02/17 02:09:50;;;;;;;2.63;1.38;;;;;;;0.45;62.02;92078.13;4962702;28;20116;-90
2022/02/17 02:12:59;;;;;;;4.85;1.63;;;;;;;0.47;62.23;92058.84;4991824;28;20414;-90
2022/02/17 02:15:58;;;;;;;2.17;1.20;;;;;;;0.32;61.76;92038.03;4998296;28;20042;-91
2022/02/17 02:21:47;;;;;;;2.58;1.30;;;;;;;0.12;61.16;92015.31;4987383;28;20054;-90
2022/02/17 02:24:59;;;;;;;;;;;;;;;;;;;;;
2022/02/17 02:27:58;;;;;;;;;;;;;;;;;;;;;
2022/02/17 02:31:06;;;;;;;2.67;1.50;;;;;;;0.18;61.90;92037.53;4980904;28;20053;-90
2022/02/17 02:37:28;;;;;;;4.18;1.85;;;;;;;1.05;58.85;92092.91;4986318;28;20046;-90
2022/02/17 02:40:44;;;;;;;3.17;1.70;;;;;;;0.68;59.28;92034.16;4969852;28;20480;-90
2022/02/17 02:46:52;;;;;;;3.50;1.80;;;;;;;0.30;60.87;92017.66;4973033;28;20046;-91
2022/02/17 02:49:44;;;;;;;3.88;1.80;;;;;;;0.66;60.60;92081.81;5016484;28;20038;-91
2022/02/17 02:52:56;;;;;;;3.60;1.80;;;;;;;0.26;62.16;92034.56;4987336;28;20038;-90
2022/02/17 02:56:13;;;;;;;3.30;1.50;;;;;;;0.21;61.90;92024.22;4983666;28;20033;-91
2022/02/17 03:02:33;;;;;;;2.42;1.45;;;;;;;0.30;60.87;92034.91;4994948;28;20050;-91
2022/02/17 03:09:06;;;;;;;4.85;1.60;;;;;;;0.21;61.72;92024.22;5000926;28;20056;-90
2022/02/17 03:12:11;;;;;;;3.22;1.67;;;;;;;0.16;61.96;92026.72;4983933;28;20034;-91
2022/02/17 03:21:32;;;;;;;5.63;2.22;;;;;;;0.43;61.61;92037.16;4993478;28;20499;-91
2022/02/17 03:24:37;;;;;;;7.35;2.55;;;;;;;0.12;63.03;92000.66;4983333;28;20042;-91
2022/02/17 03:27:45;;;;;;;9.15;2.50;;;;;;;0.19;62.37;92011.56;4986353;28;20391;-91
2022/02/17 03:31:21;;;;;;;4.20;2.25;;;;;;;0.06;62.17;91975.84;4955532;28;20053;-90
2022/02/17 03:34:24;;;;;;;;;;;;;;;;;;;;;
2022/02/17 03:37:20;;;;;;;;;;;;;;;;;;;;;
2022/02/17 03:40:19;;;;;;;7.20;2.42;;;;;;;0.16;61.96;91998.41;4994817;28;20496;-90
2022/02/17 03:43:16;;;;;;;5.37;2.20;;;;;;;0.18;62.04;91983.47;4995054;28;20060;-91
2022/02/17 03:46:19;;;;;;;4.50;2.28;;;;;;;-0.05;62.28;91945.81;4978420;28;20308;-90
2022/02/17 03:49:18;;;;;;;8.13;2.15;;;;;;;0.40;62.19;92009.28;4979060;28;20034;-91
2022/02/17 03:52:24;;;;;;;5.85;2.60;;;;;;;-0.04;62.37;91947.38;4959987;28;20097;-90
2022/02/17 03:55:46;;;;;;;;;;;;;;;;;;;;;
2022/02/17 04:01:28;;;;;;;4.85;2.38;;;;;;;0.11;60.80;91965.63;5014939;28;20052;-90
2022/02/17 04:04:31;;;;;;;;;;;;;;;;;;;;;
2022/02/17 04:07:26;;;;;;;5.03;2.17;;;;;;;0.24;61.02;91976.63;4982529;28;20072;-91
2022/02/17 04:10:28;;;;;;;5.35;1.60;;;;;;;0.30;60.99;91991.13;4985645;28;20050;-91
2022/02/17 04:13:38;;;;;;;3.95;1.70;;;;;;;0.48;61.47;92037.22;4999583;28;20060;-90
2022/02/17 04:16:36;;;;;;;;;;;;;;;;;;;;;
2022/02/17 04:19:38;;;;;;;4.18;1.92;;;;;;;-0.04;61.13;91973.91;4997836;28;20038;-90
2022/02/17 04:22:31;;;;;;;3.65;1.95;;;;;;;0.03;61.54;91971.16;4984457;28;20123;-91
2022/02/17 04:25:35;;;;;;;;;;;;;;;;;;;;;
2022/02/17 04:29:00;;;;;;;;;;;;;;;;;;;;;
2022/02/17 04:32:07;;;;;;;3.63;1.52;;;;;;;0.05;61.40;91963.22;5015280;28;20056;-89
2022/02/17 04:35:07;;;;;;;;;;;;;;;;;;;;;
2022/02/17 04:37:50;;;;;;;;;;;;;;;;;;;;;
2022/02/17 04:44:21;;;;;;;4.38;2.05;;;;;;;0.31;61.02;92011.47;4972977;28;20369;-90
2022/02/17 04:47:18;;;;;;;;;;;;;;;;;;;;;
2022/02/17 04:49:57;;;;;;;5.55;2.22;;;;;;;0.37;62.24;92018.28;4963406;28;20055;-91
2022/02/17 04:52:37;;;;;;;4.88;1.92;;;;;;;0.55;60.94;92037.06;4973100;28;20053;-90
2022/02/17 04:55:32;;;;;;;4.95;2.05;;;;;;;0.10;61.59;91984.66;4963914;28;20513;-91
2022/02/17 04:58:36;;;;;;;5.28;2.20;;;;;;;0.29;62.14;92020.44;4993051;28;20034;-91
2022/02/17 05:01:24;;;;;;;5.00;2.10;;;;;;;0.02;62.64;91985.03;4998306;28;20398;-91
2022/02/17 05:04:50;;;;;;;4.47;2.10;;;;;;;0.48;62.27;92070.72;4909095;28;2539872;-90
2022/02/17 05:07:34;;;;;;;7.63;2.50;;;;;;;0.00;62.69;91997.38;4970815;28;20050;-90
2022/02/17 05:10:38;;;;;;;5.20;2.42;;;;;;;0.14;60.20;92016.63;4987695;28;20054;-91
2022/02/17 05:13:36;;;;;;;;;;;;;;;;;;;;;
2022/02/17 05:16:22;;;;;;;4.95;2.17;;;;;;;0.47;60.58;92040.81;4987382;28;20121;-91
2022/02/17 05:19:48;;;;;;;4.60;2.20;;;;;;;0.28;60.94;92021.47;4978985;28;20061;-91
2022/02/17 05:23:01;;;;;;;5.88;2.15;;;;;;;0.33;61.95;92026.69;4982666;28;20046;-91
2022/02/17 05:26:41;;;;;;;;;;;;;;;;;;;;;
2022/02/17 05:33:12;;;;;;;;;;;;;;;;;;;;;
2022/02/17 05:36:13;;;;;;;6.88;2.13;;;;;;;0.34;62.41;92054.03;4996758;28;20062;-90
2022/02/17 05:39:08;;;;;;;4.20;1.92;;;;;;;-0.01;61.76;91990.66;4992457;28;20056;-88
2022/02/17 05:42:29;;;;;;;;;;;;;;;;;;;;;
2022/02/17 05:45:18;;;;;;;5.00;1.80;;;;;;;-0.02;61.63;92032.84;4994215;28;20050;-88
2022/02/17 05:48:02;;;;;;;;;;;;;;;;;;;;;
2022/02/17 05:51:02;;;;;;;;;;;;;;;;;;;;;
2022/02/17 05:53:36;;;;;;;3.95;1.70;;;;;;;0.24;60.04;92013.44;4997202;28;20034;-87
2022/02/17 05:56:40;;;;;;;4.30;1.70;;;;;;;0.51;59.42;92047.06;5000454;28;20104;-89
2022/02/17 05:59:38;;;;;;;3.35;1.67;;;;;;;0.44;60.54;92049.00;4990040;28;20046;-89
2022/02/17 06:05:27;;;;;;;4.38;1.95;;;;;;;0.56;61.41;92062.59;4977885;28;20053;-88
2022/02/17 06:08:20;;;;;;;4.28;1.95;;;;;;;0.56;61.77;92078.06;4953382;28;20033;-90
2022/02/17 06:11:21;;;;;;;3.90;2.00;;;;;;;0.56;61.87;92085.78;5008822;28;20112;-87
2022/02/17 06:14:14;;;;;;;;;;;;;;;;;;;;;
2022/02/17 06:16:54;;;;;;;2.90;1.50;;;;;;;0.17;61.02;92029.03;4966485;28;20091;-88
2022/02/17 06:19:39;;;;;;;2.85;1.50;;;;;;;0.32;61.01;92074.06;4984343;28;20038;-87
2022/02/17 06:22:33;;;;;;;3.75;1.85;;;;;;;0.32;61.05;92082.56;5012667;28;20462;-87
2022/02/17 06:25:34;;;;;;;2.85;1.58;;;;;;;0.29;60.86;92051.34;4997576;28;20038;-87
2022/02/17 06:28:04;;;;;;;3.38;1.83;;;;;;;0.30;61.22;92024.59;4994900;28;20395;-88
2022/02/17 06:30:47;;;;;;;3.70;1.50;;;;;;;0.44;60.84;92036.13;4983050;28;20065;-87
2022/02/17 06:33:23;;;;;;;2.50;1.40;;;;;;;0.47;61.31;92051.09;4998052;28;20161;-87
2022/02/17 06:36:16;;;;;;;;;;;;;;;;;;;;;
2022/02/17 06:38:55;;;;;;;;;;;;;;;;;;;;;
2022/02/17 06:41:51;;;;;;;;;;;;;;;;;;;;;
2022/02/17 06:44:40;;;;;;;3.97;1.88;;;;;;;6.08;47.86;92059.56;4997299;28;20064;-86
2022/02/17 06:47:24;;;;;;;3.45;1.80;;;;;;;7.70;43.85;92048.81;4981283;28;20133;-88
2022/02/17 06:50:02;;;;;;;3.90;1.83;;;;;;;9.34;41.39;92084.84;4980072;28;20039;-87
2022/02/17 06:53:13;;;;;;;;;;;;;;;;;;;;;
2022/02/17 07:05:10;;;;;;;2.47;1.40;;;;;;;15.70;28.97;92093.69;4940449;29;20074;-95
2022/02/17 07:09:17;;;;;;;;;;;;;;;;;;;;;
2022/02/17 07:21:15;;;;;;;;;;;;;;;;;;;;;
2022/02/17 07:29:03;;;;;;;5.25;2.35;;;;;;;20.54;22.54;92045.06;4835677;29;20057;-95
2022/02/17 07:35:07;;;;;;;5.15;2.10;;;;;;;23.65;18.88;92080.19;4931481;29;20083;-95
2022/02/17 07:38:42;;;;;;;6.20;2.17;;;;;;;24.61;17.51;92109.03;4953579;28;20051;-95
2022/02/17 07:41:37;;;;;;;;;;;;;;;;;;;;;
2022/02/17 07:45:32;;;;;;;;;;;;;;;;;;;;;
2022/02/17 07:48:25;;;;;;;;;;;;;;;;;;;;;
2022/02/17 07:51:16;;;;;;;;;;;;;;;;;;;;;
2022/02/17 07:54:43;;;;;;;5.75;1.90;;;;;;;20.97;19.61;92026.25;4970355;28;20034;-95
2022/02/17 07:57:21;;;;;;;3.40;2.00;;;;;;;23.12;18.14;92046.03;4905832;28;20042;-94
2022/02/17 08:04:36;;;;;;;;;;;;;;;;;;;;;
2022/02/17 08:15:28;;;;;;;;;;;;;;;;;;;;;
2022/02/17 08:22:43;;;;;;;6.88;2.38;;;;;;;12.52;32.28;92101.22;4980013;28;20125;-96
2022/02/17 09:17:41;;;;;;;;;;;;;;;;;;;;;
2022/02/17 09:36:02;;;;;;;8.20;3.40;;;;;;;9.95;45.49;92137.88;5017275;28;20084;-81
2022/02/17 09:38:28;;;;;;;10.90;4.18;;;;;;;10.39;45.96;92157.47;5001058;28;20045;-80
2022/02/17 09:40:54;;;;;;;7.00;3.75;;;;;;;10.70;44.07;92141.16;5000779;28;20101;-79
2022/02/17 09:43:24;;;;;;;12.43;4.13;;;;;;;10.01;44.71;92142.72;4984619;28;20235;-81
2022/02/17 09:45:51;;;;;;;12.82;4.30;;;;;;;9.11;47.14;92147.38;5018291;28;20480;-81
2022/02/17 09:48:17;;;;;;;7.65;3.60;;;;;;;9.38;47.88;92146.69;4999730;28;20038;-81
2022/02/17 09:50:44;;;;;;;9.52;3.55;;;;;;;10.03;44.95;92160.75;5001309;28;20041;-80
2022/02/17 09:53:10;;;;;;;9.15;3.40;;;;;;;10.57;43.89;92147.94;5018297;28;20022;-80
2022/02/17 09:55:35;;;;;;;7.65;3.00;;;;;;;10.79;40.48;92148.00;4984191;28;20053;-80
2022/02/17 09:58:01;;;;;;;7.82;3.47;;;;;;;10.23;41.40;92153.59;4984544;28;20050;-80
2022/02/17 10:00:27;;;;;;;9.15;4.30;;;;;;;10.25;42.38;92147.00;5002011;28;20040;-80
2022/02/17 10:02:53;;;;;;;8.82;3.60;;;;;;;10.25;42.60;92161.91;5005086;28;20044;-81
2022/02/17 10:05:19;;;;;;;8.20;3.45;;;;;;;10.25;41.95;92159.31;5021684;28;20113;-80
2022/02/17 10:07:45;;;;;;;7.63;2.92;;;;;;;10.76;41.91;92163.50;5004376;28;20060;-79
2022/02/17 10:10:22;;;;;;;6.75;3.20;;;;;;;10.86;42.83;92163.31;5003885;28;20038;-81
2022/02/17 10:12:59;;;;;;;7.07;3.55;;;;;;;10.62;41.68;92166.94;5022107;28;20044;-79
2022/02/17 10:15:34;;;;;;;8.13;3.08;;;;;;;10.54;42.69;92159.78;5004196;28;20217;-81
2022/02/17 10:18:03;;;;;;;6.70;3.13;;;;;;;10.68;43.64;92172.09;5003889;28;20038;-81
2022/02/17 10:21:09;;;;;;;7.97;3.20;;;;;;;11.59;40.97;92160.59;5004153;28;20034;-81
2022/02/17 10:23:46;;;;;;;7.10;3.53;;;;;;;11.12;40.41;92162.72;5022755;28;20410;-82
2022/02/17 10:26:22;;;;;;;8.27;3.38;;;;;;;11.79;41.02;92159.31;5022666;28;20033;-82
2022/02/17 10:28:55;;;;;;;6.97;3.53;;;;;;;12.34;40.16;92158.97;5004081;28;20045;-82
2022/02/17 10:31:29;;;;;;;7.70;3.30;;;;;;;12.70;38.71;92171.09;5022654;28;20030;-79
2022/02/17 10:33:58;;;;;;;7.22;3.47;;;;;;;12.36;39.90;92169.13;4981765;28;20117;-76
2022/02/17 10:36:38;;;;;;;10.15;3.20;;;;;;;11.85;39.71;92174.63;4999598;28;20039;-80
2022/02/17 10:39:26;;;;;;;7.35;3.08;;;;;;;11.98;40.67;92156.50;4996212;28;20060;-80
2022/02/17 10:42:08;;;;;;;10.40;3.35;;;;;;;11.60;40.35;92188.38;4989057;28;20034;-81
2022/02/17 10:44:39;;;;;;;6.43;2.97;;;;;;;11.48;40.07;92180.25;4991989;28;20030;-80
2022/02/17 10:47:18;;;;;;;5.85;2.72;;;;;;;11.32;41.36;92170.13;5003167;28;20034;-82
2022/02/17 10:49:56;;;;;;;11.88;2.95;;;;;;;11.70;38.63;92167.13;4995853;28;20018;-79
2022/02/17 10:52:36;;;;;;;7.40;2.85;;;;;;;11.34;39.99;92173.22;4999688;28;20042;-81
2022/02/17 10:55:20;;;;;;;7.25;3.20;;;;;;;11.98;37.84;92152.03;5014969;28;20058;-79
2022/02/17 10:57:47;;;;;;;5.38;2.70;;;;;;;12.34;37.04;92166.84;5000941;28;20034;-80
2022/02/17 11:00:22;;;;;;;6.10;2.83;;;;;;;12.64;38.85;92141.56;4999043;28;20056;-81
2022/02/17 11:02:50;;;;;;;6.70;2.70;;;;;;;12.49;38.14;92147.25;5021847;28;20044;-81
2022/02/17 11:05:17;;;;;;;7.18;3.00;;;;;;;12.60;38.29;92156.38;5016347;28;20110;-80
2022/02/17 11:07:46;;;;;;;7.35;3.10;;;;;;;12.38;38.06;92138.13;5000332;28;20042;-80
2022/02/17 11:10:13;;;;;;;5.20;2.75;;;;;;;12.85;38.55;92135.72;5000580;28;20049;-79
2022/02/17 11:12:40;;;;;;;8.75;3.50;;;;;;;13.12;37.00;92135.41;4984350;28;20046;-79
2022/02/17 11:15:07;;;;;;;8.98;2.97;;;;;;;12.40;40.12;92135.97;4989542;28;20034;-79
2022/02/17 11:17:36;;;;;;;5.07;2.50;;;;;;;12.84;39.60;92134.19;4982646;28;20026;-80
2022/02/17 11:20:07;;;;;;;11.85;3.60;;;;;;;12.83;38.12;92130.00;4986463;28;20454;-80
2022/02/17 11:22:33;;;;;;;8.20;3.20;;;;;;;13.62;38.23;92125.50;4985166;28;20060;-78
2022/02/17 11:24:59;;;;;;;9.27;3.00;;;;;;;13.49;36.76;92128.00;4999511;28;20034;-78
2022/02/17 11:27:24;;;;;;;6.18;2.80;;;;;;;12.51;39.07;92116.22;4964154;28;20034;-77
2022/02/17 11:29:50;;;;;;;8.05;4.50;;;;;;;12.19;39.55;92109.50;4961492;28;20043;-78
2022/02/17 11:32:19;;;;;;;8.07;3.88;;;;;;;12.70;37.73;92110.69;4997117;28;20046;-81
2022/02/17 11:34:50;;;;;;;6.05;2.80;;;;;;;12.12;38.62;92115.22;4998166;28;20042;-80
2022/02/17 11:37:30;;;;;;;6.68;2.85;;;;;;;12.60;36.87;92113.63;4988096;28;20048;-79
2022/02/17 11:40:09;;;;;;;5.03;2.70;;;;;;;13.58;36.43;92120.09;5002423;28;20040;-80
2022/02/17 11:42:36;;;;;;;6.15;3.10;;;;;;;14.32;35.72;92121.53;5009507;28;20068;-80
2022/02/17 11:45:11;;;;;;;6.80;2.63;;;;;;;14.82;34.10;92114.00;5002658;28;20026;-81
2022/02/17 11:47:55;;;;;;;7.75;2.90;;;;;;;14.53;34.75;92110.28;4997580;28;20068;-79
2022/02/17 11:50:48;;;;;;;5.28;2.80;;;;;;;14.77;34.41;92093.88;5000893;28;20104;-80
2022/02/17 11:53:36;;;;;;;6.07;2.83;;;;;;;14.63;34.20;92082.81;4993307;28;20136;-81
2022/02/17 11:56:20;;;;;;;6.50;3.35;;;;;;;14.16;36.49;92091.56;4978408;28;20039;-79
2022/02/17 11:58:48;;;;;;;8.73;3.22;;;;;;;13.86;34.33;92088.91;5016719;28;20045;-79
2022/02/17 12:01:23;;;;;;;12.88;3.20;;;;;;;13.71;35.72;92074.44;5000131;28;20041;-80
2022/02/17 12:04:15;;;;;;;7.53;3.17;;;;;;;13.01;36.02;92076.38;5001011;28;20450;-79
2022/02/17 12:06:47;;;;;;;6.32;3.15;;;;;;;12.00;36.08;92065.94;5019035;28;20038;-80
2022/02/17 12:09:29;;;;;;;;;;;;;;;12.90;35.26;92069.91;4998892;28;20100;-78
2022/02/17 12:11:55;;;;;;;10.40;3.60;;;;;;;14.06;36.18;92057.72;4987602;28;19914;-78
2022/02/17 12:14:21;;;;;;;7.25;3.08;;;;;;;14.76;33.78;92056.22;4978803;28;20030;-79
2022/02/17 12:16:51;;;;;;;10.85;3.63;;;;;;;14.48;32.92;92052.53;4995324;28;20044;-78
2022/02/17 12:19:19;;;;;;;7.30;3.30;;;;;;;15.19;33.97;92062.97;5006065;28;20026;-80
2022/02/17 12:21:47;;;;;;;5.88;2.50;;;;;;;15.89;34.92;92064.94;4992672;28;20034;-80
2022/02/17 12:24:15;;;;;;;8.65;3.20;;;;;;;15.02;32.40;92068.44;5000991;28;20038;-79
2022/02/17 12:26:47;;;;;;;8.98;3.60;;;;;;;15.19;32.29;92062.97;4979447;28;20053;-79
2022/02/17 12:29:29;;;;;;;7.45;3.22;;;;;;;14.95;35.44;92068.16;5015490;28;20033;-79
2022/02/17 12:31:58;;;;;;;8.05;3.65;;;;;;;15.32;34.29;92076.22;5010577;28;20467;-79
2022/02/17 12:34:25;;;;;;;7.85;3.30;;;;;;;15.85;35.11;92055.34;4983810;28;20460;-77
2022/02/17 12:36:52;;;;;;;7.25;3.00;;;;;;;16.40;33.56;92054.81;4970236;28;20055;-79
2022/02/17 12:39:18;;;;;;;7.10;2.85;;;;;;;16.80;32.90;92046.19;4966296;28;20098;-79
2022/02/17 12:42:17;;;;;;;6.88;3.15;;;;;;;17.17;31.72;92043.41;4955542;28;20093;-79
2022/02/17 12:44:44;;;;;;;6.05;3.00;;;;;;;16.91;30.96;92041.19;4941543;28;20050;-79
2022/02/17 12:47:12;;;;;;;10.23;3.90;;;;;;;15.10;33.30;92051.75;4973483;28;20098;-79
2022/02/17 12:49:38;;;;;;;9.13;3.63;;;;;;;15.26;32.74;92053.78;4976367;28;20030;-79
2022/02/17 12:52:20;;;;;;;8.80;3.40;;;;;;;14.51;33.51;92033.44;4976563;28;20039;-79
2022/02/17 12:54:55;;;;;;;13.88;3.78;;;;;;;13.86;33.98;92031.03;4978100;28;20034;-79
2022/02/17 12:57:21;;;;;;;7.85;3.85;;;;;;;14.40;33.38;92042.81;4977630;28;20074;-78
2022/02/17 13:00:00;;;;;;;21.52;3.95;;;;;;;14.77;33.16;92035.91;4975267;28;20808;-79
2022/02/17 13:02:26;;;;;;;11.07;3.75;;;;;;;15.47;33.91;92025.50;4975305;28;20075;-78
2022/02/17 13:04:52;;;;;;;7.78;3.45;;;;;;;16.10;33.56;92027.88;4974840;28;20050;-77
2022/02/17 13:07:23;;;;;;;7.70;3.70;;;;;;;16.55;32.52;92028.81;4978203;28;20121;-79
2022/02/17 13:09:55;;;;;;;6.22;3.20;;;;;;;17.08;32.43;92016.34;4975799;28;20042;-79
2022/02/17 13:12:21;;;;;;;9.13;4.47;;;;;;;17.20;32.54;92013.66;4976952;28;20045;-77
2022/02/17 13:14:50;;;;;;;13.50;3.47;;;;;;;17.25;30.59;92023.97;4975875;28;20061;-78
2022/02/17 13:17:23;;;;;;;15.38;3.72;;;;;;;17.39;31.52;92018.28;4976408;28;20038;-77
2022/02/17 13:19:50;;;;;;;14.10;3.50;;;;;;;17.97;32.29;92019.69;4977900;28;20031;-78
2022/02/17 13:22:17;;;;;;;6.38;2.80;;;;;;;18.38;33.09;92010.44;4960604;28;20405;-79
2022/02/17 13:24:55;;;;;;;7.70;2.97;;;;;;;17.79;31.33;92012.09;4959507;28;20035;-78
2022/02/17 13:27:21;;;;;;;8.60;3.10;;;;;;;18.02;31.74;92020.22;4977614;28;20034;-78
2022/02/17 13:29:56;;;;;;;5.90;2.42;;;;;;;18.19;30.71;92015.66;4975858;28;20038;-79
2022/02/17 13:32:23;;;;;;;8.15;3.22;;;;;;;18.15;30.71;92005.00;4976003;28;20038;-79
2022/02/17 13:34:49;;;;;;;4.30;1.90;;;;;;;18.56;27.74;92018.75;4952491;28;20520;-78
2022/02/17 13:37:16;;;;;;;5.25;2.08;;;;;;;18.43;32.07;92012.81;4980690;28;20039;-78
2022/02/17 13:39:55;;;;;;;4.38;2.15;;;;;;;18.36;27.11;92007.34;4981015;28;20050;-78
2022/02/17 13:42:22;;;;;;;4.97;2.30;;;;;;;17.81;28.71;92017.03;4980748;28;20264;-79
2022/02/17 13:44:48;;;;;;;5.72;2.38;;;;;;;18.26;30.11;92021.13;4980377;28;20015;-79
2022/02/17 13:47:15;;;;;;;4.05;1.70;;;;;;;18.55;25.72;92019.09;4981844;28;20110;-79
2022/02/17 13:49:43;;;;;;;2.58;1.30;;;;;;;18.70;23.80;92012.97;4981279;28;20039;-77
2022/02/17 13:52:19;;;;;;;5.63;2.35;;;;;;;18.66;27.31;92015.56;4964126;28;20039;-78
2022/02/17 13:54:50;;;;;;;4.82;2.03;;;;;;;18.40;27.78;92010.84;4964051;28;20054;-78
2022/02/17 13:57:16;;;;;;;4.15;2.00;;;;;;;18.93;27.04;92021.03;4981786;28;20042;-78
2022/02/17 13:59:41;;;;;;;3.90;1.80;;;;;;;18.75;26.89;92011.94;4981467;28;20047;-79
2022/02/17 14:02:10;;;;;;;8.48;1.95;;;;;;;19.29;25.07;92022.50;4972530;28;20035;-78
2022/02/17 14:04:36;;;;;;;2.40;1.30;;;;;;;19.22;24.52;92017.06;4961386;28;20119;-78
2022/02/17 14:07:03;;;;;;;3.35;1.63;;;;;;;18.97;26.68;92029.84;4961312;29;20071;-79
2022/02/17 14:09:30;;;;;;;4.07;1.90;;;;;;;18.87;26.34;92033.81;4963711;28;20031;-78
2022/02/17 14:12:00;;;;;;;3.03;1.45;;;;;;;18.95;23.75;92024.13;4962281;29;20543;-78
2022/02/17 14:14:26;;;;;;;1.73;1.08;;;;;;;19.17;22.88;92009.38;4976222;28;20053;-79
2022/02/17 14:16:53;;;;;;;4.05;1.70;;;;;;;19.56;27.35;92030.56;4979704;28;20039;-79
2022/02/17 14:19:19;;;;;;;3.00;1.50;;;;;;;18.71;26.13;92014.50;4978569;28;20034;-78
2022/02/17 14:21:46;;;;;;;4.10;1.70;;;;;;;19.49;25.46;92022.47;4959063;28;20039;-80
2022/02/17 14:24:13;;;;;;;2.88;1.40;;;;;;;19.82;25.47;92021.19;4964709;28;20050;-79
2022/02/17 14:26:39;;;;;;;2.58;1.30;;;;;;;20.08;25.10;92023.84;4973425;28;20023;-78
2022/02/17 14:29:05;;;;;;;2.47;1.30;;;;;;;19.40;25.05;92006.00;4966109;28;20031;-79
2022/02/17 14:31:31;;;;;;;3.58;0.75;;;;;;;18.57;22.26;92014.97;4955579;29;20042;-77
2022/02/17 14:33:57;;;;;;;8.00;1.10;;;;;;;19.52;23.27;92024.41;4953429;28;20054;-78
2022/02/17 14:36:23;;;;;;;1.58;0.90;;;;;;;19.89;22.07;92015.97;4965839;28;20482;-79
2022/02/17 14:38:49;;;;;;;2.65;1.48;;;;;;;19.21;23.25;92012.88;4961104;28;20043;-79
2022/02/17 14:41:14;;;;;;;2.70;1.30;;;;;;;19.18;24.90;92026.81;4980572;28;20588;-78
2022/02/17 14:43:40;;;;;;;5.35;1.30;;;;;;;19.50;26.01;92037.28;4981197;28;20054;-80
2022/02/17 14:46:06;;;;;;;2.35;1.23;;;;;;;19.93;23.80;92033.50;4986368;28;20035;-80
2022/02/17 14:48:34;;;;;;;2.63;1.17;;;;;;;19.96;23.67;92021.41;4984705;28;20043;-80
2022/02/17 14:51:02;;;;;;;1.42;0.77;;;;;;;20.23;22.12;92032.81;4983652;28;20034;-80
2022/02/17 14:53:31;;;;;;;2.15;0.90;;;;;;;19.47;21.94;92019.41;4982122;28;20058;-80
2022/02/17 14:55:57;;;;;;;5.60;1.50;;;;;;;19.92;21.32;92034.59;4965365;28;20141;-79
2022/02/17 14:58:26;;;;;;;2.78;1.38;;;;;;;19.50;22.58;92039.94;4983209;28;20073;-79
2022/02/17 15:00:53;;;;;;;2.78;0.93;;;;;;;19.59;21.80;92018.47;4979313;28;20446;-80
2022/02/17 15:03:20;;;;;;;1.42;0.80;;;;;;;19.95;21.21;92030.50;4963038;28;20378;-78
2022/02/17 15:05:46;;;;;;;1.85;1.00;;;;;;;19.70;22.37;92020.22;4980382;28;20090;-79
2022/02/17 15:08:12;;;;;;;1.67;1.10;;;;;;;19.71;22.52;92023.66;4980350;28;20050;-80
2022/02/17 15:10:38;;;;;;;1.48;0.82;;;;;;;19.80;20.12;92031.38;4981389;28;20050;-78
2022/02/17 15:13:04;;;;;;;4.30;0.85;;;;;;;19.78;22.62;92021.09;4962805;28;20077;-79
2022/02/17 15:15:30;;;;;;;1.15;0.77;;;;;;;19.90;21.56;92022.81;4979379;28;20046;-79
2022/02/17 15:17:56;;;;;;;4.43;1.08;;;;;;;20.03;21.36;92031.38;4964321;28;20113;-79
2022/02/17 15:20:23;;;;;;;4.05;1.60;;;;;;;20.11;20.89;92025.81;4980885;28;20034;-79
2022/02/17 15:22:59;;;;;;;2.15;0.90;;;;;;;19.50;20.73;92021.38;4981404;28;20047;-78
2022/02/17 15:25:26;;;;;;;1.85;0.90;;;;;;;19.52;20.80;92016.44;4979895;28;20038;-78
2022/02/17 15:27:53;;;;;;;1.35;0.80;;;;;;;19.35;21.52;92015.78;4963784;28;20622;-79
2022/02/17 15:30:21;;;;;;;3.00;1.02;;;;;;;19.46;22.23;92007.25;4983172;28;20038;-79
2022/02/17 15:32:47;;;;;;;1.63;0.77;;;;;;;19.42;21.86;92009.06;4959111;28;20118;-79
2022/02/17 15:35:14;;;;;;;1.02;0.70;;;;;;;19.34;22.49;92019.56;4966808;28;20087;-79
2022/02/17 15:37:40;;;;;;;2.42;0.55;;;;;;;19.24;21.74;92020.13;4974237;28;20035;-79
2022/02/17 15:40:07;;;;;;;1.27;0.70;;;;;;;19.17;22.80;92006.75;4960647;28;20477;-79
2022/02/17 15:42:32;;;;;;;1.58;0.55;;;;;;;18.83;23.80;91998.50;4955214;28;20043;-78
2022/02/17 15:44:58;;;;;;;2.50;1.00;;;;;;;18.81;22.95;92003.41;4936715;28;20034;-78
2022/02/17 15:47:25;;;;;;;4.65;1.30;;;;;;;18.73;23.18;92002.47;4967246;28;20432;-77
2022/02/17 15:49:51;;;;;;;6.35;2.63;;;;;;;18.47;24.14;92011.00;4966581;28;20097;-79
2022/02/17 15:52:16;;;;;;;3.42;1.40;;;;;;;18.31;23.25;91995.13;4972486;28;20062;-79
2022/02/17 15:54:43;;;;;;;2.42;1.02;;;;;;;18.23;23.24;92014.63;4973863;28;20454;-78
2022/02/17 15:57:08;;;;;;;2.05;0.88;;;;;;;18.05;22.96;92008.94;4970496;28;20063;-79
2022/02/17 15:59:36;;;;;;;1.00;0.65;;;;;;;17.90;23.10;92009.72;4970890;28;20039;-79
2022/02/17 16:02:07;;;;;;;1.45;0.70;;;;;;;17.40;24.18;92011.09;4973514;28;20074;-79
2022/02/17 16:04:33;;;;;;;1.05;0.68;;;;;;;16.83;24.94;92015.66;4978974;28;20408;-78
2022/02/17 16:06:59;;;;;;;1.00;0.70;;;;;;;16.28;24.77;92009.94;4978191;28;20043;-78
2022/02/17 16:09:25;;;;;;;1.75;0.90;;;;;;;15.99;25.41;92019.63;4947380;28;20043;-78
2022/02/17 16:11:51;;;;;;;1.20;0.55;;;;;;;15.73;26.63;92016.53;4979140;28;20039;-78
2022/02/17 16:14:18;;;;;;;1.05;0.70;;;;;;;15.43;26.67;92019.34;4979614;28;20034;-79
2022/02/17 16:16:45;;;;;;;0.63;0.43;;;;;;;15.29;26.49;92018.84;4979111;28;20049;-79
2022/02/17 16:19:11;;;;;;;1.05;0.60;;;;;;;15.08;26.93;92024.94;4980538;28;20045;-79
2022/02/17 16:21:37;;;;;;;0.90;0.75;;;;;;;15.04;27.20;92023.28;4978620;28;20035;-78
2022/02/17 16:24:04;;;;;;;1.67;0.88;;;;;;;14.86;28.09;92033.19;4979136;28;20038;-78
2022/02/17 16:26:30;;;;;;;5.75;1.25;;;;;;;14.61;29.00;92033.09;4979425;28;20246;-79
2022/02/17 16:28:57;;;;;;;1.30;0.73;;;;;;;14.46;28.48;92041.56;4966994;28;20035;-78
2022/02/17 16:31:23;;;;;;;1.98;0.90;;;;;;;14.34;28.29;92050.91;4963291;28;20564;-78